sensor_id;sensor_type;location;lat;lon;timestamp;P1;durP1;ratioP1;P2;durP2;ratioP2
35304;SDS011;26433;48.034;-1.764;2024-01-11T00:02:51;8.73;;;4.50;;
35304;SDS011;26433;48.034;-1.764;2024-01-11T00:07:56;11.77;;;4.68;;
35304;SDS011;26433;48.034;-1.764;2024-01-11T00:13:00;12.65;;;5.80;;
35304;SDS011;26433;48.034;-1.764;2024-01-11T00:18:03;12.37;;;4.55;;
35304;SDS011;26433;48.034;-1.764;2024-01-11T00:23:09;6.90;;;4.18;;
35304;SDS011;26433;48.034;-1.764;2024-01-11T00:28:13;12.27;;;4.05;;
35304;SDS011;26433;48.034;-1.764;2024-01-11T00:38:22;12.68;;;4.90;;
35304;SDS011;26433;48.034;-1.764;2024-01-11T00:43:25;11.65;;;5.05;;
35304;SDS011;26433;48.034;-1.764;2024-01-11T00:48:29;11.77;;;4.15;;
35304;SDS011;26433;48.034;-1.764;2024-01-11T00:53:34;11.02;;;4.80;;
35304;SDS011;26433;48.034;-1.764;2024-01-11T00:58:38;16.17;;;5.90;;
35304;SDS011;26433;48.034;-1.764;2024-01-11T01:03:41;10.52;;;4.82;;
35304;SDS011;26433;48.034;-1.764;2024-01-11T01:08:46;11.63;;;5.68;;
35304;SDS011;26433;48.034;-1.764;2024-01-11T01:13:50;12.43;;;4.53;;
35304;SDS011;26433;48.034;-1.764;2024-01-11T01:18:53;12.30;;;5.03;;
35304;SDS011;26433;48.034;-1.764;2024-01-11T01:23:58;14.35;;;5.43;;
35304;SDS011;26433;48.034;-1.764;2024-01-11T01:29:02;11.00;;;4.87;;
35304;SDS011;26433;48.034;-1.764;2024-01-11T01:34:06;9.15;;;4.60;;
35304;SDS011;26433;48.034;-1.764;2024-01-11T01:39:12;12.32;;;4.20;;
35304;SDS011;26433;48.034;-1.764;2024-01-11T01:44:16;14.15;;;4.78;;
35304;SDS011;26433;48.034;-1.764;2024-01-11T01:49:19;17.48;;;5.78;;
35304;SDS011;26433;48.034;-1.764;2024-01-11T01:54:26;12.10;;;5.15;;
35304;SDS011;26433;48.034;-1.764;2024-01-11T01:59:30;13.73;;;4.53;;
35304;SDS011;26433;48.034;-1.764;2024-01-11T02:04:34;14.43;;;5.47;;
35304;SDS011;26433;48.034;-1.764;2024-01-11T02:09:40;12.82;;;4.97;;
35304;SDS011;26433;48.034;-1.764;2024-01-11T02:14:43;15.60;;;5.35;;
35304;SDS011;26433;48.034;-1.764;2024-01-11T02:19:47;14.40;;;4.78;;
35304;SDS011;26433;48.034;-1.764;2024-01-11T02:24:52;10.27;;;4.50;;
35304;SDS011;26433;48.034;-1.764;2024-01-11T02:29:56;10.80;;;4.40;;
35304;SDS011;26433;48.034;-1.764;2024-01-11T02:35:00;13.40;;;4.70;;
35304;SDS011;26433;48.034;-1.764;2024-01-11T02:40:05;10.52;;;4.60;;
35304;SDS011;26433;48.034;-1.764;2024-01-11T02:45:10;8.90;;;4.82;;
35304;SDS011;26433;48.034;-1.764;2024-01-11T02:50:15;12.90;;;5.03;;
35304;SDS011;26433;48.034;-1.764;2024-01-11T02:55:20;10.50;;;4.00;;
35304;SDS011;26433;48.034;-1.764;2024-01-11T03:00:23;10.85;;;4.45;;
35304;SDS011;26433;48.034;-1.764;2024-01-11T03:05:27;9.13;;;3.75;;
35304;SDS011;26433;48.034;-1.764;2024-01-11T03:10:32;11.65;;;4.20;;
35304;SDS011;26433;48.034;-1.764;2024-01-11T03:15:36;9.65;;;3.67;;
35304;SDS011;26433;48.034;-1.764;2024-01-11T03:20:39;10.05;;;4.07;;
35304;SDS011;26433;48.034;-1.764;2024-01-11T03:30:48;11.43;;;4.55;;
35304;SDS011;26433;48.034;-1.764;2024-01-11T03:35:51;10.50;;;4.15;;
35304;SDS011;26433;48.034;-1.764;2024-01-11T03:40:56;15.13;;;4.18;;
35304;SDS011;26433;48.034;-1.764;2024-01-11T03:46:00;9.98;;;3.80;;
35304;SDS011;26433;48.034;-1.764;2024-01-11T03:51:04;10.55;;;4.45;;
35304;SDS011;26433;48.034;-1.764;2024-01-11T03:56:09;10.55;;;3.95;;
35304;SDS011;26433;48.034;-1.764;2024-01-11T04:01:13;8.95;;;3.83;;
35304;SDS011;26433;48.034;-1.764;2024-01-11T04:06:20;11.12;;;4.18;;
35304;SDS011;26433;48.034;-1.764;2024-01-11T04:11:28;14.40;;;5.65;;
35304;SDS011;26433;48.034;-1.764;2024-01-11T04:16:32;15.40;;;4.03;;
35304;SDS011;26433;48.034;-1.764;2024-01-11T04:26:42;12.85;;;4.45;;
35304;SDS011;26433;48.034;-1.764;2024-01-11T04:31:45;16.67;;;3.90;;
35304;SDS011;26433;48.034;-1.764;2024-01-11T04:36:49;10.43;;;4.20;;
35304;SDS011;26433;48.034;-1.764;2024-01-11T04:41:54;12.40;;;4.60;;
35304;SDS011;26433;48.034;-1.764;2024-01-11T04:46:57;14.13;;;4.65;;
35304;SDS011;26433;48.034;-1.764;2024-01-11T04:52:01;8.75;;;3.95;;
35304;SDS011;26433;48.034;-1.764;2024-01-11T04:57:06;10.50;;;4.20;;
35304;SDS011;26433;48.034;-1.764;2024-01-11T05:02:09;11.00;;;4.62;;
35304;SDS011;26433;48.034;-1.764;2024-01-11T05:07:13;14.57;;;4.15;;
35304;SDS011;26433;48.034;-1.764;2024-01-11T05:12:18;9.60;;;4.05;;
35304;SDS011;26433;48.034;-1.764;2024-01-11T05:17:21;10.73;;;4.62;;
35304;SDS011;26433;48.034;-1.764;2024-01-11T05:22:25;8.77;;;3.92;;
35304;SDS011;26433;48.034;-1.764;2024-01-11T05:27:30;8.90;;;3.83;;
35304;SDS011;26433;48.034;-1.764;2024-01-11T05:32:33;9.80;;;4.40;;
35304;SDS011;26433;48.034;-1.764;2024-01-11T05:37:37;12.23;;;4.70;;
35304;SDS011;26433;48.034;-1.764;2024-01-11T05:42:42;7.37;;;4.12;;
35304;SDS011;26433;48.034;-1.764;2024-01-11T05:47:46;14.45;;;4.18;;
35304;SDS011;26433;48.034;-1.764;2024-01-11T05:52:49;9.70;;;4.80;;
35304;SDS011;26433;48.034;-1.764;2024-01-11T05:57:55;12.35;;;5.25;;
35304;SDS011;26433;48.034;-1.764;2024-01-11T06:02:59;7.85;;;3.42;;
35304;SDS011;26433;48.034;-1.764;2024-01-11T06:08:03;9.20;;;4.03;;
35304;SDS011;26433;48.034;-1.764;2024-01-11T06:13:08;13.77;;;4.43;;
35304;SDS011;26433;48.034;-1.764;2024-01-11T06:18:12;9.57;;;4.00;;
35304;SDS011;26433;48.034;-1.764;2024-01-11T06:23:16;10.85;;;4.62;;
35304;SDS011;26433;48.034;-1.764;2024-01-11T06:28:22;8.73;;;4.03;;
35304;SDS011;26433;48.034;-1.764;2024-01-11T06:33:26;7.75;;;3.67;;
35304;SDS011;26433;48.034;-1.764;2024-01-11T06:38:30;9.57;;;4.70;;
35304;SDS011;26433;48.034;-1.764;2024-01-11T06:43:35;9.90;;;3.55;;
35304;SDS011;26433;48.034;-1.764;2024-01-11T06:48:38;7.68;;;4.55;;
35304;SDS011;26433;48.034;-1.764;2024-01-11T06:53:42;9.57;;;4.72;;
35304;SDS011;26433;48.034;-1.764;2024-01-11T07:03:51;11.10;;;3.92;;
35304;SDS011;26433;48.034;-1.764;2024-01-11T07:08:55;8.38;;;3.90;;
35304;SDS011;26433;48.034;-1.764;2024-01-11T07:14:00;9.82;;;4.45;;
35304;SDS011;26433;48.034;-1.764;2024-01-11T07:19:06;12.20;;;3.65;;
35304;SDS011;26433;48.034;-1.764;2024-01-11T07:24:09;12.05;;;4.28;;
35304;SDS011;26433;48.034;-1.764;2024-01-11T07:29:14;16.62;;;5.22;;
35304;SDS011;26433;48.034;-1.764;2024-01-11T07:34:18;9.80;;;3.83;;
35304;SDS011;26433;48.034;-1.764;2024-01-11T07:39:22;7.90;;;4.03;;
35304;SDS011;26433;48.034;-1.764;2024-01-11T07:44:28;11.88;;;4.90;;
35304;SDS011;26433;48.034;-1.764;2024-01-11T07:49:31;13.85;;;5.12;;
35304;SDS011;26433;48.034;-1.764;2024-01-11T07:54:35;12.70;;;4.78;;
35304;SDS011;26433;48.034;-1.764;2024-01-11T07:59:40;10.93;;;4.30;;
35304;SDS011;26433;48.034;-1.764;2024-01-11T08:04:44;9.55;;;4.50;;
35304;SDS011;26433;48.034;-1.764;2024-01-11T08:09:50;11.30;;;5.78;;
35304;SDS011;26433;48.034;-1.764;2024-01-11T08:14:55;9.07;;;4.40;;
35304;SDS011;26433;48.034;-1.764;2024-01-11T08:19:58;11.05;;;3.97;;
35304;SDS011;26433;48.034;-1.764;2024-01-11T08:25:02;12.25;;;3.65;;
35304;SDS011;26433;48.034;-1.764;2024-01-11T08:30:08;9.60;;;4.10;;
35304;SDS011;26433;48.034;-1.764;2024-01-11T08:35:14;8.85;;;4.40;;
35304;SDS011;26433;48.034;-1.764;2024-01-11T08:40:18;10.48;;;4.28;;
35304;SDS011;26433;48.034;-1.764;2024-01-11T08:45:23;16.95;;;3.67;;
35304;SDS011;26433;48.034;-1.764;2024-01-11T08:50:27;8.90;;;3.62;;
35304;SDS011;26433;48.034;-1.764;2024-01-11T08:55:31;10.93;;;4.68;;
35304;SDS011;26433;48.034;-1.764;2024-01-11T09:00:35;9.85;;;4.15;;
35304;SDS011;26433;48.034;-1.764;2024-01-11T09:05:39;13.02;;;4.93;;
35304;SDS011;26433;48.034;-1.764;2024-01-11T09:10:43;15.93;;;5.15;;
35304;SDS011;26433;48.034;-1.764;2024-01-11T09:15:48;12.43;;;4.45;;
35304;SDS011;26433;48.034;-1.764;2024-01-11T09:20:52;12.57;;;4.43;;
35304;SDS011;26433;48.034;-1.764;2024-01-11T09:25:55;20.67;;;4.80;;
35304;SDS011;26433;48.034;-1.764;2024-01-11T09:31:00;10.90;;;5.10;;
35304;SDS011;26433;48.034;-1.764;2024-01-11T09:36:04;14.65;;;4.43;;
35304;SDS011;26433;48.034;-1.764;2024-01-11T09:41:09;12.85;;;5.82;;
35304;SDS011;26433;48.034;-1.764;2024-01-11T09:46:17;12.48;;;5.32;;
35304;SDS011;26433;48.034;-1.764;2024-01-11T09:51:22;9.35;;;4.30;;
35304;SDS011;26433;48.034;-1.764;2024-01-11T09:56:28;15.85;;;5.18;;
35304;SDS011;26433;48.034;-1.764;2024-01-11T10:01:33;11.80;;;5.55;;
35304;SDS011;26433;48.034;-1.764;2024-01-11T10:06:37;13.52;;;6.62;;
35304;SDS011;26433;48.034;-1.764;2024-01-11T10:11:41;11.73;;;4.65;;
35304;SDS011;26433;48.034;-1.764;2024-01-11T10:16:48;18.73;;;5.47;;
35304;SDS011;26433;48.034;-1.764;2024-01-11T10:21:52;10.77;;;4.85;;
35304;SDS011;26433;48.034;-1.764;2024-01-11T10:26:55;11.93;;;4.90;;
35304;SDS011;26433;48.034;-1.764;2024-01-11T10:32:01;8.75;;;5.35;;
35304;SDS011;26433;48.034;-1.764;2024-01-11T10:37:07;7.05;;;5.07;;
35304;SDS011;26433;48.034;-1.764;2024-01-11T10:42:12;13.70;;;6.57;;
35304;SDS011;26433;48.034;-1.764;2024-01-11T10:47:19;9.80;;;5.62;;
35304;SDS011;26433;48.034;-1.764;2024-01-11T10:52:26;8.75;;;5.20;;
35304;SDS011;26433;48.034;-1.764;2024-01-11T10:57:33;9.30;;;5.35;;
35304;SDS011;26433;48.034;-1.764;2024-01-11T11:02:39;13.50;;;6.10;;
35304;SDS011;26433;48.034;-1.764;2024-01-11T11:07:44;14.20;;;5.97;;
35304;SDS011;26433;48.034;-1.764;2024-01-11T11:12:49;11.65;;;5.57;;
35304;SDS011;26433;48.034;-1.764;2024-01-11T11:17:54;11.05;;;6.43;;
35304;SDS011;26433;48.034;-1.764;2024-01-11T11:23:08;13.30;;;5.62;;
35304;SDS011;26433;48.034;-1.764;2024-01-11T11:28:12;11.30;;;5.63;;
35304;SDS011;26433;48.034;-1.764;2024-01-11T11:33:19;14.25;;;5.93;;
35304;SDS011;26433;48.034;-1.764;2024-01-11T11:38:25;11.55;;;5.15;;
35304;SDS011;26433;48.034;-1.764;2024-01-11T11:43:30;10.35;;;5.22;;
35304;SDS011;26433;48.034;-1.764;2024-01-11T11:48:48;10.75;;;6.05;;
35304;SDS011;26433;48.034;-1.764;2024-01-11T11:53:54;9.63;;;5.15;;
35304;SDS011;26433;48.034;-1.764;2024-01-11T11:58:58;8.95;;;5.12;;
35304;SDS011;26433;48.034;-1.764;2024-01-11T12:04:07;10.32;;;4.03;;
35304;SDS011;26433;48.034;-1.764;2024-01-11T12:09:11;12.07;;;5.82;;
35304;SDS011;26433;48.034;-1.764;2024-01-11T12:14:23;9.27;;;4.57;;
35304;SDS011;26433;48.034;-1.764;2024-01-11T12:19:29;8.90;;;4.12;;
35304;SDS011;26433;48.034;-1.764;2024-01-11T12:24:33;14.95;;;5.22;;
35304;SDS011;26433;48.034;-1.764;2024-01-11T12:29:38;9.43;;;4.87;;
35304;SDS011;26433;48.034;-1.764;2024-01-11T12:34:57;11.27;;;4.72;;
35304;SDS011;26433;48.034;-1.764;2024-01-11T12:40:01;10.07;;;4.80;;
35304;SDS011;26433;48.034;-1.764;2024-01-11T12:45:08;8.50;;;5.15;;
35304;SDS011;26433;48.034;-1.764;2024-01-11T12:50:13;13.70;;;6.00;;
35304;SDS011;26433;48.034;-1.764;2024-01-11T12:55:17;11.05;;;5.05;;
35304;SDS011;26433;48.034;-1.764;2024-01-11T13:00:22;21.10;;;6.20;;
35304;SDS011;26433;48.034;-1.764;2024-01-11T13:05:28;9.70;;;4.72;;
35304;SDS011;26433;48.034;-1.764;2024-01-11T13:10:34;14.27;;;5.25;;
35304;SDS011;26433;48.034;-1.764;2024-01-11T13:15:38;11.12;;;5.28;;
35304;SDS011;26433;48.034;-1.764;2024-01-11T13:20:43;10.00;;;5.50;;
35304;SDS011;26433;48.034;-1.764;2024-01-11T13:25:48;12.48;;;6.07;;
35304;SDS011;26433;48.034;-1.764;2024-01-11T13:30:52;16.92;;;5.75;;
35304;SDS011;26433;48.034;-1.764;2024-01-11T13:35:57;14.13;;;6.50;;
35304;SDS011;26433;48.034;-1.764;2024-01-11T13:41:01;12.48;;;5.75;;
35304;SDS011;26433;48.034;-1.764;2024-01-11T13:46:07;12.85;;;4.78;;
35304;SDS011;26433;48.034;-1.764;2024-01-11T13:51:12;15.77;;;5.30;;
35304;SDS011;26433;48.034;-1.764;2024-01-11T13:56:17;10.82;;;4.40;;
35304;SDS011;26433;48.034;-1.764;2024-01-11T14:01:22;10.15;;;4.55;;
35304;SDS011;26433;48.034;-1.764;2024-01-11T14:06:27;10.98;;;5.07;;
35304;SDS011;26433;48.034;-1.764;2024-01-11T14:11:30;10.15;;;4.30;;
35304;SDS011;26433;48.034;-1.764;2024-01-11T14:16:34;13.50;;;5.60;;
35304;SDS011;26433;48.034;-1.764;2024-01-11T14:21:39;7.33;;;4.37;;
35304;SDS011;26433;48.034;-1.764;2024-01-11T14:26:42;9.63;;;4.85;;
35304;SDS011;26433;48.034;-1.764;2024-01-11T14:31:47;11.98;;;3.62;;
35304;SDS011;26433;48.034;-1.764;2024-01-11T14:36:52;9.10;;;5.10;;
35304;SDS011;26433;48.034;-1.764;2024-01-11T14:41:58;9.77;;;4.20;;
35304;SDS011;26433;48.034;-1.764;2024-01-11T14:47:02;9.48;;;3.67;;
35304;SDS011;26433;48.034;-1.764;2024-01-11T14:52:07;6.75;;;4.03;;
35304;SDS011;26433;48.034;-1.764;2024-01-11T14:57:11;7.25;;;3.45;;
35304;SDS011;26433;48.034;-1.764;2024-01-11T15:02:15;6.07;;;2.83;;
35304;SDS011;26433;48.034;-1.764;2024-01-11T15:07:20;5.37;;;3.03;;
35304;SDS011;26433;48.034;-1.764;2024-01-11T15:12:23;5.20;;;2.97;;
35304;SDS011;26433;48.034;-1.764;2024-01-11T15:17:27;8.73;;;4.22;;
35304;SDS011;26433;48.034;-1.764;2024-01-11T15:22:32;6.03;;;3.05;;
35304;SDS011;26433;48.034;-1.764;2024-01-11T15:27:36;6.70;;;3.87;;
35304;SDS011;26433;48.034;-1.764;2024-01-11T15:32:40;6.20;;;2.90;;
35304;SDS011;26433;48.034;-1.764;2024-01-11T15:37:45;6.55;;;3.60;;
35304;SDS011;26433;48.034;-1.764;2024-01-11T15:42:49;7.35;;;3.05;;
35304;SDS011;26433;48.034;-1.764;2024-01-11T15:47:52;9.63;;;2.97;;
35304;SDS011;26433;48.034;-1.764;2024-01-11T15:52:57;7.67;;;3.27;;
35304;SDS011;26433;48.034;-1.764;2024-01-11T15:58:01;7.37;;;4.10;;
35304;SDS011;26433;48.034;-1.764;2024-01-11T16:03:05;6.70;;;3.28;;
35304;SDS011;26433;48.034;-1.764;2024-01-11T16:18:18;7.55;;;3.42;;
35304;SDS011;26433;48.034;-1.764;2024-01-11T16:23:24;7.05;;;3.65;;
35304;SDS011;26433;48.034;-1.764;2024-01-11T16:28:27;11.40;;;3.17;;
35304;SDS011;26433;48.034;-1.764;2024-01-11T16:33:31;9.43;;;4.17;;
35304;SDS011;26433;48.034;-1.764;2024-01-11T16:38:36;8.47;;;3.30;;
35304;SDS011;26433;48.034;-1.764;2024-01-11T16:43:40;8.73;;;3.10;;
35304;SDS011;26433;48.034;-1.764;2024-01-11T16:48:46;10.05;;;4.57;;
35304;SDS011;26433;48.034;-1.764;2024-01-11T16:53:51;9.95;;;5.30;;
35304;SDS011;26433;48.034;-1.764;2024-01-11T16:58:55;11.35;;;2.83;;
35304;SDS011;26433;48.034;-1.764;2024-01-11T17:03:58;7.47;;;4.37;;
35304;SDS011;26433;48.034;-1.764;2024-01-11T17:09:04;9.60;;;5.32;;
35304;SDS011;26433;48.034;-1.764;2024-01-11T17:14:08;7.82;;;3.20;;
35304;SDS011;26433;48.034;-1.764;2024-01-11T17:19:12;8.00;;;3.53;;
35304;SDS011;26433;48.034;-1.764;2024-01-11T17:24:17;11.95;;;4.70;;
35304;SDS011;26433;48.034;-1.764;2024-01-11T17:29:21;10.70;;;3.28;;
35304;SDS011;26433;48.034;-1.764;2024-01-11T17:34:27;10.27;;;4.30;;
35304;SDS011;26433;48.034;-1.764;2024-01-11T17:39:33;11.55;;;5.22;;
35304;SDS011;26433;48.034;-1.764;2024-01-11T17:44:37;9.18;;;4.40;;
35304;SDS011;26433;48.034;-1.764;2024-01-11T17:49:41;8.05;;;5.00;;
35304;SDS011;26433;48.034;-1.764;2024-01-11T17:54:46;17.73;;;6.80;;
35304;SDS011;26433;48.034;-1.764;2024-01-11T17:59:50;6.90;;;4.28;;
35304;SDS011;26433;48.034;-1.764;2024-01-11T18:09:59;7.62;;;3.67;;
35304;SDS011;26433;48.034;-1.764;2024-01-11T18:15:03;7.75;;;4.28;;
35304;SDS011;26433;48.034;-1.764;2024-01-11T18:20:07;10.00;;;4.68;;
35304;SDS011;26433;48.034;-1.764;2024-01-11T18:25:13;8.38;;;4.22;;
35304;SDS011;26433;48.034;-1.764;2024-01-11T18:30:16;10.45;;;4.18;;
35304;SDS011;26433;48.034;-1.764;2024-01-11T18:35:20;11.75;;;5.00;;
35304;SDS011;26433;48.034;-1.764;2024-01-11T18:40:25;9.05;;;3.50;;
35304;SDS011;26433;48.034;-1.764;2024-01-11T18:45:28;11.25;;;4.93;;
35304;SDS011;26433;48.034;-1.764;2024-01-11T18:50:32;5.18;;;3.25;;
35304;SDS011;26433;48.034;-1.764;2024-01-11T18:55:37;9.43;;;4.55;;
35304;SDS011;26433;48.034;-1.764;2024-01-11T19:00:41;12.98;;;4.45;;
35304;SDS011;26433;48.034;-1.764;2024-01-11T19:05:44;8.40;;;3.67;;
35304;SDS011;26433;48.034;-1.764;2024-01-11T19:10:50;12.35;;;3.90;;
35304;SDS011;26433;48.034;-1.764;2024-01-11T19:15:53;10.52;;;4.10;;
35304;SDS011;26433;48.034;-1.764;2024-01-11T19:20:57;9.00;;;3.15;;
35304;SDS011;26433;48.034;-1.764;2024-01-11T19:26:02;3.92;;;2.78;;
35304;SDS011;26433;48.034;-1.764;2024-01-11T19:31:06;8.20;;;3.42;;
35304;SDS011;26433;48.034;-1.764;2024-01-11T19:36:11;5.37;;;2.65;;
35304;SDS011;26433;48.034;-1.764;2024-01-11T19:41:21;4.20;;;2.15;;
35304;SDS011;26433;48.034;-1.764;2024-01-11T19:46:24;6.00;;;2.58;;
35304;SDS011;26433;48.034;-1.764;2024-01-11T19:56:34;7.85;;;3.47;;
35304;SDS011;26433;48.034;-1.764;2024-01-11T20:01:38;6.18;;;2.90;;
35304;SDS011;26433;48.034;-1.764;2024-01-11T20:06:42;8.90;;;3.17;;
35304;SDS011;26433;48.034;-1.764;2024-01-11T20:11:49;4.90;;;3.20;;
35304;SDS011;26433;48.034;-1.764;2024-01-11T20:16:52;2.67;;;2.08;;
35304;SDS011;26433;48.034;-1.764;2024-01-11T20:21:56;6.87;;;2.58;;
35304;SDS011;26433;48.034;-1.764;2024-01-11T20:27:01;9.68;;;2.75;;
35304;SDS011;26433;48.034;-1.764;2024-01-11T20:32:06;5.93;;;2.75;;
35304;SDS011;26433;48.034;-1.764;2024-01-11T20:37:10;10.57;;;4.10;;
35304;SDS011;26433;48.034;-1.764;2024-01-11T20:42:15;6.65;;;3.12;;
35304;SDS011;26433;48.034;-1.764;2024-01-11T20:47:18;4.18;;;2.58;;
35304;SDS011;26433;48.034;-1.764;2024-01-11T20:52:24;6.97;;;3.45;;
35304;SDS011;26433;48.034;-1.764;2024-01-11T20:57:30;6.70;;;3.80;;
35304;SDS011;26433;48.034;-1.764;2024-01-11T21:02:34;4.40;;;2.78;;
35304;SDS011;26433;48.034;-1.764;2024-01-11T21:07:38;5.93;;;2.95;;
35304;SDS011;26433;48.034;-1.764;2024-01-11T21:12:42;4.37;;;2.53;;
35304;SDS011;26433;48.034;-1.764;2024-01-11T21:17:46;5.78;;;3.70;;
35304;SDS011;26433;48.034;-1.764;2024-01-11T21:22:50;11.45;;;4.62;;
35304;SDS011;26433;48.034;-1.764;2024-01-11T21:27:55;12.25;;;5.18;;
35304;SDS011;26433;48.034;-1.764;2024-01-11T21:32:58;6.87;;;3.97;;
35304;SDS011;26433;48.034;-1.764;2024-01-11T21:38:02;6.82;;;3.25;;
35304;SDS011;26433;48.034;-1.764;2024-01-11T21:43:08;6.47;;;2.90;;
35304;SDS011;26433;48.034;-1.764;2024-01-11T21:48:11;9.63;;;3.60;;
35304;SDS011;26433;48.034;-1.764;2024-01-11T21:53:15;4.62;;;3.35;;
35304;SDS011;26433;48.034;-1.764;2024-01-11T21:58:20;6.40;;;2.80;;
35304;SDS011;26433;48.034;-1.764;2024-01-11T22:03:25;4.28;;;2.97;;
35304;SDS011;26433;48.034;-1.764;2024-01-11T22:08:30;4.47;;;2.33;;
35304;SDS011;26433;48.034;-1.764;2024-01-11T22:13:35;6.12;;;2.97;;
35304;SDS011;26433;48.034;-1.764;2024-01-11T22:18:39;7.93;;;3.10;;
35304;SDS011;26433;48.034;-1.764;2024-01-11T22:23:43;5.80;;;2.45;;
35304;SDS011;26433;48.034;-1.764;2024-01-11T22:28:48;8.02;;;3.28;;
35304;SDS011;26433;48.034;-1.764;2024-01-11T22:33:52;7.10;;;2.83;;
35304;SDS011;26433;48.034;-1.764;2024-01-11T22:38:56;5.37;;;2.92;;
35304;SDS011;26433;48.034;-1.764;2024-01-11T22:49:05;4.95;;;2.75;;
35304;SDS011;26433;48.034;-1.764;2024-01-11T22:54:08;9.68;;;4.32;;
35304;SDS011;26433;48.034;-1.764;2024-01-11T22:59:13;4.35;;;2.60;;
35304;SDS011;26433;48.034;-1.764;2024-01-11T23:04:17;5.00;;;3.03;;
35304;SDS011;26433;48.034;-1.764;2024-01-11T23:09:21;7.50;;;2.72;;
35304;SDS011;26433;48.034;-1.764;2024-01-11T23:14:26;4.30;;;2.35;;
35304;SDS011;26433;48.034;-1.764;2024-01-11T23:19:30;3.35;;;2.12;;
35304;SDS011;26433;48.034;-1.764;2024-01-11T23:24:33;4.32;;;2.33;;
35304;SDS011;26433;48.034;-1.764;2024-01-11T23:29:38;5.00;;;2.17;;
35304;SDS011;26433;48.034;-1.764;2024-01-11T23:34:42;7.05;;;2.87;;
35304;SDS011;26433;48.034;-1.764;2024-01-11T23:39:46;6.50;;;2.55;;
35304;SDS011;26433;48.034;-1.764;2024-01-11T23:44:51;9.00;;;3.35;;
35304;SDS011;26433;48.034;-1.764;2024-01-11T23:49:55;4.90;;;2.33;;
35304;SDS011;26433;48.034;-1.764;2024-01-11T23:54:59;4.32;;;2.12;;
